createdAt,value
2018-07-28T00:00:33.420Z,29.65
2018-07-28T00:03:01.575Z,29.66
2018-07-28T00:05:29.808Z,29.53
2018-07-28T00:07:58.271Z,29.39
2018-07-28T00:10:26.441Z,29.83
2018-07-28T00:12:54.793Z,29.78
2018-07-28T00:15:22.916Z,29.63
2018-07-28T00:19:40.281Z,29.14
2018-07-28T00:22:08.408Z,28.92
2018-07-28T00:24:37.406Z,29.22
2018-07-28T00:27:05.631Z,29.16
2018-07-28T00:29:34.070Z,29.51
2018-07-28T00:32:03.428Z,29.37
2018-07-28T00:34:31.756Z,29.63
2018-07-28T00:36:59.829Z,29.67
2018-07-28T00:39:28.565Z,29.45
2018-07-28T00:41:56.717Z,29.32
2018-07-28T00:44:24.832Z,29.47
2018-07-28T00:46:54.946Z,29.35
2018-07-28T00:49:23.443Z,28.48
2018-07-28T00:51:52.538Z,28.51
2018-07-28T00:54:20.641Z,28.77
2018-07-28T00:56:48.725Z,29.13
2018-07-28T00:59:16.837Z,29.34
2018-07-28T01:01:44.966Z,29.21
2018-07-28T01:04:15.761Z,28.77
2018-07-28T01:06:43.850Z,28.60
2018-07-28T01:09:11.954Z,29.00
2018-07-28T01:11:40.096Z,28.06
2018-07-28T01:14:08.305Z,28.26
2018-07-28T01:16:36.575Z,28.77
2018-07-28T01:19:04.811Z,28.87
2018-07-28T01:21:32.915Z,28.17
2018-07-28T01:24:02.577Z,28.66
2018-07-28T01:26:30.723Z,28.78
2018-07-28T01:29:04.249Z,28.24
2018-07-28T01:31:32.507Z,28.45
2018-07-28T01:34:01.473Z,28.14
2018-07-28T01:36:31.166Z,28.11
2018-07-28T01:38:59.362Z,28.31
2018-07-28T01:41:28.146Z,28.34
2018-07-28T01:43:56.293Z,28.19
2018-07-28T01:46:24.334Z,28.23
2018-07-28T01:48:52.386Z,27.69
2018-07-28T02:08:38.552Z,28.10
2018-07-28T02:28:24.997Z,27.83
2018-07-28T02:30:53.642Z,27.68
2018-07-28T02:33:21.969Z,27.63
2018-07-28T02:35:50.096Z,27.62
2018-07-28T02:55:34.979Z,27.27
2018-07-28T02:58:03.626Z,26.95
2018-07-28T03:00:31.707Z,26.71
2018-07-28T03:02:59.789Z,27.02
2018-07-28T03:22:45.203Z,26.80
2018-07-28T03:25:14.551Z,26.80
2018-07-28T03:45:00.945Z,25.94
2018-07-28T03:47:29.028Z,26.36
2018-07-28T03:49:57.202Z,26.22
2018-07-28T03:52:25.637Z,26.18
2018-07-28T03:54:54.330Z,25.98
2018-07-28T03:57:22.432Z,26.18
2018-07-28T03:59:50.834Z,26.22
2018-07-28T04:02:19.054Z,26.04
2018-07-28T04:22:07.775Z,26.15
2018-07-28T04:24:36.146Z,26.05
2018-07-28T04:27:04.882Z,26.33
2018-07-28T04:29:35.262Z,26.26
2018-07-28T04:32:03.290Z,25.68
2018-07-28T04:34:31.394Z,25.44
2018-07-28T04:36:59.529Z,25.80
2018-07-28T04:39:27.562Z,25.84
2018-07-28T04:41:55.698Z,25.61
2018-07-28T04:44:23.823Z,25.11
2018-07-28T04:46:52.100Z,25.55
2018-07-28T04:49:20.185Z,25.44
2018-07-28T04:51:48.370Z,24.98
2018-07-28T04:54:16.479Z,25.29
2018-07-28T04:56:44.550Z,25.48
2018-07-28T04:59:12.681Z,25.40
2018-07-28T05:01:40.815Z,25.70
2018-07-28T05:04:08.897Z,25.92
2018-07-28T05:06:36.993Z,25.89
2018-07-28T05:09:07.781Z,25.85
2018-07-28T05:11:37.172Z,26.00
2018-07-28T05:14:06.586Z,25.30
2018-07-28T05:16:34.663Z,25.87
2018-07-28T05:19:02.766Z,26.09
2018-07-28T05:21:32.035Z,26.36
2018-07-28T05:24:00.432Z,26.24
2018-07-28T05:26:30.253Z,26.45
2018-07-28T05:29:01.459Z,26.36
2018-07-28T05:31:30.545Z,26.59
2018-07-28T05:33:59.610Z,26.68
2018-07-28T05:36:27.933Z,26.56
2018-07-28T05:38:56.106Z,26.85
2018-07-28T05:41:24.219Z,27.09
2018-07-28T05:43:52.390Z,27.24
2018-07-28T05:46:20.505Z,27.28
2018-07-28T05:48:51.318Z,27.29
2018-07-28T05:51:19.381Z,27.54
2018-07-28T05:53:47.546Z,27.57
2018-07-28T05:56:15.691Z,27.76
2018-07-28T05:58:43.830Z,27.72
2018-07-28T06:01:11.926Z,27.79
2018-07-28T06:03:40.057Z,27.91
2018-07-28T06:06:08.205Z,27.99
2018-07-28T06:08:36.421Z,27.79
2018-07-28T06:11:05.137Z,27.74
2018-07-28T06:13:33.268Z,27.72
2018-07-28T06:16:01.463Z,27.57
2018-07-28T06:18:29.649Z,27.45
2018-07-28T06:20:57.810Z,27.57
2018-07-28T06:23:26.757Z,27.86
2018-07-28T06:25:56.068Z,28.20
2018-07-28T06:45:40.858Z,28.21
2018-07-28T06:48:10.146Z,27.99
2018-07-28T07:07:55.673Z,26.67
2018-07-28T07:10:37.519Z,26.74
2018-07-28T07:13:05.622Z,26.85
2018-07-28T07:15:34.638Z,26.68
2018-07-28T07:35:18.821Z,27.02
2018-07-28T07:37:47.133Z,26.81
2018-07-28T07:40:15.269Z,27.02
2018-07-28T07:42:43.503Z,27.28
2018-07-28T07:45:11.601Z,27.76
2018-07-28T07:47:39.769Z,27.71
2018-07-28T07:50:07.971Z,27.91
2018-07-28T08:09:52.664Z,28.90
2018-07-28T08:12:20.742Z,28.93
2018-07-28T08:14:48.842Z,28.90
2018-07-28T08:17:16.978Z,28.64
2018-07-28T08:19:45.042Z,28.51
2018-07-28T08:22:13.146Z,28.59
2018-07-28T08:24:41.940Z,28.57
2018-07-28T08:44:27.377Z,28.68
2018-07-28T08:46:55.732Z,28.73
2018-07-28T08:49:23.878Z,28.92
2018-07-28T08:51:51.927Z,28.66
2018-07-28T08:54:20.308Z,28.70
2018-07-28T08:56:48.395Z,28.56
2018-07-28T09:16:33.529Z,28.25
2018-07-28T09:19:01.651Z,28.26
2018-07-28T09:21:30.598Z,28.11
2018-07-28T09:23:59.560Z,27.98
2018-07-28T09:26:28.545Z,27.79
2018-07-28T09:46:12.753Z,28.27
2018-07-28T09:48:40.821Z,28.34
2018-07-28T09:51:09.014Z,28.74
2018-07-28T09:53:37.164Z,28.27
2018-07-28T09:56:05.563Z,28.34
2018-07-28T09:58:34.286Z,28.31
2018-07-28T10:18:21.672Z,30.24
2018-07-28T10:20:49.969Z,30.37
2018-07-28T10:40:35.443Z,30.69
2018-07-28T11:00:19.471Z,31.24
2018-07-28T11:20:06.990Z,31.65
2018-07-28T11:22:35.334Z,31.36
2018-07-28T11:42:31.026Z,32.08
2018-07-28T11:45:07.954Z,33.07
2018-07-28T11:47:36.467Z,34.04
2018-07-28T11:50:04.610Z,34.45
2018-07-28T11:52:32.851Z,35.37
2018-07-28T11:55:01.348Z,36.08
2018-07-28T11:57:29.458Z,35.13
2018-07-28T11:59:58.078Z,36.68
2018-07-28T12:02:26.198Z,36.16
2018-07-28T12:04:54.437Z,37.12
2018-07-28T12:07:22.530Z,37.42
2018-07-28T12:09:50.698Z,37.96
2018-07-28T12:49:45.658Z,39.50
2018-07-28T12:52:13.772Z,40.99
2018-07-28T12:54:43.214Z,42.18
2018-07-28T12:57:13.696Z,40.54
2018-07-28T12:59:42.359Z,41.64
2018-07-28T13:02:10.641Z,39.30
2018-07-28T13:04:38.754Z,39.26
2018-07-28T13:07:07.416Z,40.19
2018-07-28T13:09:35.846Z,41.43
2018-07-28T13:12:04.886Z,42.18
2018-07-28T13:14:33.285Z,40.42
2018-07-28T13:17:02.049Z,39.56
2018-07-28T13:19:30.275Z,40.60
2018-07-28T13:21:58.684Z,39.92
2018-07-28T13:24:27.202Z,38.52
2018-07-28T13:26:55.545Z,39.61
2018-07-28T13:29:23.832Z,38.01
2018-07-28T13:31:51.961Z,37.95
2018-07-28T13:51:37.226Z,40.91
2018-07-28T13:54:05.705Z,39.51
2018-07-28T13:56:34.074Z,39.42
2018-07-28T13:59:02.856Z,39.29
2018-07-28T14:01:33.578Z,38.87
2018-07-28T14:04:01.955Z,40.25
2018-07-28T14:06:30.721Z,38.22
2018-07-28T14:08:59.080Z,36.58
2018-07-28T14:28:44.156Z,34.02
2018-07-28T14:31:12.326Z,33.17
2018-07-28T14:33:40.759Z,33.03
2018-07-28T14:36:09.054Z,33.08
2018-07-28T14:38:37.198Z,33.75
2018-07-28T14:58:23.150Z,33.28
2018-07-28T15:00:51.338Z,33.05
2018-07-28T15:03:19.435Z,32.57
2018-07-28T15:23:05.297Z,33.99
2018-07-28T15:25:33.794Z,34.07
2018-07-28T15:28:02.110Z,32.47
2018-07-28T15:47:47.308Z,35.18
2018-07-28T15:50:15.391Z,35.90
2018-07-28T15:52:43.545Z,37.38
2018-07-28T15:55:11.686Z,36.04
2018-07-28T15:57:39.863Z,34.96
2018-07-28T16:00:08.076Z,36.41
2018-07-28T16:02:36.823Z,34.95
2018-07-28T16:05:05.837Z,34.06
2018-07-28T16:07:34.376Z,34.62
2018-07-28T16:27:18.357Z,33.36
2018-07-28T16:29:46.457Z,33.36
2018-07-28T16:32:14.680Z,32.94
2018-07-28T16:34:42.846Z,32.87
2018-07-28T16:37:11.953Z,32.87
2018-07-28T16:39:40.752Z,33.33
2018-07-28T16:59:30.193Z,32.51
2018-07-28T17:01:59.004Z,32.54
2018-07-28T17:04:27.438Z,32.21
2018-07-28T17:06:57.345Z,32.18
2018-07-28T17:09:25.560Z,32.07
2018-07-28T17:11:54.079Z,32.16
2018-07-28T17:14:22.225Z,32.06
2018-07-28T17:16:50.357Z,31.84
2018-07-28T17:19:18.450Z,31.62
2018-07-28T17:21:47.822Z,31.74
2018-07-28T17:24:15.909Z,31.55
2018-07-28T17:26:43.998Z,31.70
2018-07-28T17:29:12.422Z,31.66
2018-07-28T17:31:40.518Z,31.64
2018-07-28T17:34:08.946Z,31.43
2018-07-28T17:36:37.045Z,31.16
2018-07-28T17:39:07.316Z,30.97
2018-07-28T17:41:35.617Z,30.83
2018-07-28T17:44:03.845Z,30.60
2018-07-28T17:46:34.004Z,30.76
2018-07-28T17:49:02.902Z,30.48
2018-07-28T17:51:30.984Z,30.16
2018-07-28T17:53:59.158Z,30.00
2018-07-28T17:56:28.529Z,30.14
2018-07-28T17:58:56.623Z,30.42
2018-07-28T18:01:24.859Z,29.97
2018-07-28T18:03:53.284Z,29.69
2018-07-28T18:06:22.821Z,29.80
2018-07-28T18:08:50.902Z,29.52
2018-07-28T18:11:20.383Z,29.90
2018-07-28T18:13:48.602Z,29.81
2018-07-28T18:40:46.203Z,29.59
2018-07-28T18:43:20.532Z,29.52
2018-07-28T18:45:48.768Z,29.30
2018-07-28T18:48:17.022Z,29.25
2018-07-28T18:50:45.143Z,29.09
2018-07-28T19:10:29.854Z,28.18
2018-07-28T19:13:03.356Z,27.91
2018-07-28T19:15:31.496Z,28.24
2018-07-28T19:18:04.969Z,28.12
2018-07-28T19:20:33.264Z,28.07
2018-07-28T19:23:07.097Z,27.78
2018-07-28T19:25:35.464Z,27.75
2018-07-28T19:28:09.415Z,27.83
2018-07-28T19:30:38.962Z,28.01
2018-07-28T19:33:07.164Z,27.62
2018-07-28T19:35:40.457Z,27.63
2018-07-28T19:55:24.002Z,27.44
2018-07-28T19:57:52.281Z,27.60
2018-07-28T20:00:20.403Z,27.73
2018-07-28T20:02:48.491Z,27.62
2018-07-28T20:05:19.152Z,27.36
2018-07-28T20:07:47.216Z,27.44
2018-07-28T20:10:16.423Z,27.67
2018-07-28T20:12:44.506Z,27.67
2018-07-28T20:15:12.582Z,27.45
2018-07-28T20:17:41.437Z,27.56
2018-07-28T20:37:25.024Z,26.99
2018-07-28T20:39:53.559Z,27.44
2018-07-28T20:42:21.658Z,27.33
2018-07-28T20:44:49.804Z,27.11
2018-07-28T20:47:20.224Z,27.31
2018-07-28T21:07:03.275Z,26.37
2018-07-28T21:09:31.499Z,26.41
2018-07-28T21:11:59.570Z,26.45
2018-07-28T21:14:27.893Z,26.25
2018-07-28T21:16:56.001Z,26.14
2018-07-28T21:19:24.357Z,26.15
2018-07-28T21:21:52.645Z,25.96
2018-07-28T21:24:23.044Z,25.87
2018-07-28T21:26:51.180Z,26.09
2018-07-28T21:29:19.484Z,25.98
2018-07-28T21:31:47.726Z,25.94
2018-07-28T21:34:15.889Z,26.08
2018-07-28T21:36:45.574Z,26.06
2018-07-28T21:39:13.758Z,25.96
2018-07-28T21:41:47.066Z,26.00
2018-07-28T21:44:15.423Z,26.15
2018-07-28T21:46:45.179Z,26.28
2018-07-28T21:49:13.274Z,26.47
2018-07-28T21:51:41.662Z,26.06
2018-07-28T21:54:09.810Z,26.07
2018-07-28T21:56:39.617Z,26.12
2018-07-28T21:59:08.422Z,26.27
2018-07-28T22:01:36.633Z,26.15
2018-07-28T22:04:04.723Z,26.09
2018-07-28T22:06:34.961Z,25.83
2018-07-28T22:09:04.322Z,25.98
2018-07-28T22:11:33.579Z,26.04
2018-07-28T22:14:01.651Z,25.89
2018-07-28T22:16:30.113Z,25.97
2018-07-28T22:18:58.279Z,25.57
2018-07-28T22:21:26.709Z,25.67
2018-07-28T22:23:54.839Z,25.91
2018-07-28T22:43:37.903Z,25.39
2018-07-28T22:46:05.997Z,25.76
2018-07-28T22:48:34.201Z,25.71
2018-07-28T22:51:02.361Z,26.05
2018-07-28T22:53:31.033Z,26.00
2018-07-28T22:55:59.119Z,26.08
2018-07-28T22:58:27.214Z,25.71
2018-07-28T23:00:55.285Z,25.42
2018-07-28T23:03:23.437Z,25.55
2018-07-28T23:05:51.623Z,25.03
2018-07-28T23:08:19.880Z,25.07
2018-07-28T23:10:48.211Z,25.31
2018-07-28T23:13:16.445Z,25.40
2018-07-28T23:15:44.807Z,25.28
2018-07-28T23:18:12.977Z,25.53
2018-07-28T23:37:57.341Z,25.34
2018-07-28T23:40:25.571Z,25.56
2018-07-28T23:42:53.693Z,25.37
2018-07-28T23:45:21.775Z,25.58
2018-07-28T23:47:49.894Z,25.51
2018-07-28T23:50:18.007Z,25.40
2018-07-28T23:52:46.407Z,24.93
2018-07-28T23:55:14.717Z,25.07
2018-07-28T23:57:42.942Z,25.74
